createdAt,value
2024-04-18T00:01:53.467Z,5.70
2024-04-18T00:04:23.572Z,5.74
2024-04-18T00:07:02.967Z,5.73
2024-04-18T00:09:32.825Z,5.76
2024-04-18T00:12:00.029Z,5.77
2024-04-18T00:14:48.161Z,5.77
2024-04-18T00:17:18.338Z,5.75
2024-04-18T00:19:48.199Z,5.74
2024-04-18T00:22:34.042Z,5.76
2024-04-18T00:25:07.400Z,5.73
2024-04-18T00:27:52.599Z,5.73
2024-04-18T00:30:42.291Z,5.71
2024-04-18T00:33:10.141Z,5.75
2024-04-18T00:35:40.398Z,5.72
2024-04-18T00:38:16.530Z,5.72
2024-04-18T00:40:47.762Z,5.73
2024-04-18T00:43:18.016Z,5.77
2024-04-18T00:45:48.339Z,5.79
2024-04-18T00:48:22.124Z,5.77
2024-04-18T00:50:52.424Z,5.81
2024-04-18T00:53:23.907Z,5.83
2024-04-18T00:55:54.371Z,5.84
2024-04-18T00:58:56.733Z,5.80
2024-04-18T01:01:27.062Z,5.83
2024-04-18T01:03:59.119Z,5.87
2024-04-18T01:06:42.521Z,5.88
2024-04-18T01:09:23.212Z,5.87
2024-04-18T01:12:11.555Z,5.91
2024-04-18T01:14:38.717Z,5.88
2024-04-18T01:17:08.819Z,5.93
2024-04-18T01:19:36.009Z,5.97
2024-04-18T01:56:49.954Z,5.78
2024-04-18T01:59:22.214Z,5.85
2024-04-18T02:01:52.642Z,5.86
2024-04-18T02:04:20.032Z,5.92
2024-04-18T02:06:51.375Z,5.97
2024-04-18T02:09:24.128Z,6.00
2024-04-18T02:11:56.609Z,5.97
2024-04-18T02:14:45.040Z,5.96
2024-04-18T02:17:12.241Z,6.00
2024-04-18T02:20:02.091Z,5.99
2024-04-18T02:22:41.710Z,6.03
2024-04-18T02:25:30.302Z,6.07
2024-04-18T02:28:00.124Z,6.08
2024-04-18T02:30:29.980Z,6.06
2024-04-18T02:33:14.774Z,6.11
2024-04-18T02:35:50.802Z,6.09
2024-04-18T02:38:36.392Z,6.11
2024-04-18T02:41:07.441Z,6.13
2024-04-18T02:43:54.946Z,6.14
2024-04-18T02:46:25.723Z,6.19
2024-04-18T02:49:11.076Z,6.22
2024-04-18T02:51:58.983Z,6.19
2024-04-18T02:54:44.644Z,6.09
2024-04-18T02:57:14.707Z,6.04
2024-04-18T02:59:44.638Z,6.04
2024-04-18T03:02:27.097Z,6.01
2024-04-18T03:05:13.046Z,6.04
2024-04-18T03:07:42.860Z,6.03
2024-04-18T03:10:10.044Z,6.04
2024-04-18T03:12:59.830Z,6.04
2024-04-18T03:15:51.251Z,6.05
2024-04-18T03:18:18.587Z,6.04
2024-04-18T03:20:55.546Z,6.05
2024-04-18T03:23:40.889Z,6.04
2024-04-18T03:26:12.185Z,6.02
2024-04-18T03:28:39.401Z,6.04
2024-04-18T03:31:12.017Z,6.04
2024-04-18T03:33:39.313Z,6.06
2024-04-18T03:36:09.794Z,6.08
2024-04-18T03:38:39.589Z,6.09
2024-04-18T03:41:09.416Z,6.07
2024-04-18T03:44:00.210Z,6.07
2024-04-18T03:46:32.695Z,6.12
2024-04-18T03:49:02.696Z,6.08
2024-04-18T03:51:31.470Z,6.08
2024-04-18T03:54:27.612Z,6.06
2024-04-18T03:57:03.260Z,6.07
2024-04-18T03:59:35.594Z,6.05
2024-04-18T04:02:05.739Z,6.05
2024-04-18T04:04:35.613Z,6.05
2024-04-18T04:07:02.874Z,6.03
2024-04-18T04:09:32.785Z,6.04
2024-04-18T04:11:59.986Z,6.04
2024-04-18T04:14:29.784Z,6.02
2024-04-18T04:16:56.966Z,5.95
2024-04-18T04:19:29.484Z,5.99
2024-04-18T04:21:57.154Z,5.99
2024-04-18T04:24:27.347Z,6.02
2024-04-18T04:27:15.540Z,6.02
2024-04-18T04:29:45.437Z,6.03
2024-04-18T04:32:21.117Z,6.04
2024-04-18T04:34:54.774Z,6.05
2024-04-18T04:37:21.982Z,6.08
2024-04-18T04:39:51.974Z,6.11
2024-04-18T04:42:19.308Z,6.20
2024-04-18T04:44:49.226Z,6.17
2024-04-18T04:47:42.756Z,6.23
2024-04-18T04:50:30.618Z,6.26
2024-04-18T04:53:12.935Z,6.28
2024-04-18T04:56:01.388Z,6.30
2024-04-18T04:58:28.726Z,6.34
2024-04-18T05:00:58.791Z,6.38
2024-04-18T05:03:38.276Z,6.40
2024-04-18T05:06:29.385Z,6.40
2024-04-18T05:09:12.606Z,6.43
2024-04-18T05:11:42.434Z,6.47
2024-04-18T05:14:28.162Z,6.48
2024-04-18T05:16:58.113Z,6.50
2024-04-18T05:19:25.357Z,6.54
2024-04-18T05:21:57.944Z,6.58
2024-04-18T05:24:35.220Z,6.58
2024-04-18T05:27:05.487Z,6.56
2024-04-18T05:29:50.854Z,6.52
2024-04-18T05:32:20.703Z,6.57
2024-04-18T05:35:09.392Z,6.55
2024-04-18T05:37:41.858Z,6.58
2024-04-18T05:40:12.702Z,6.60
2024-04-18T05:42:42.521Z,6.74
2024-04-18T05:45:12.361Z,6.71
2024-04-18T05:48:00.821Z,6.77
2024-04-18T05:50:30.696Z,6.83
2024-04-18T05:53:03.194Z,6.83
2024-04-18T05:55:52.940Z,6.79
2024-04-18T05:58:22.957Z,6.82
2024-04-18T06:00:58.690Z,6.92
2024-04-18T06:03:29.715Z,7.00
2024-04-18T06:06:00.224Z,7.07
2024-04-18T06:08:32.760Z,7.22
2024-04-18T06:11:02.557Z,7.34
2024-04-18T06:13:36.225Z,7.33
2024-04-18T06:16:06.412Z,7.29
2024-04-18T06:18:51.921Z,7.29
2024-04-18T06:21:21.842Z,7.37
2024-04-18T06:23:54.293Z,7.39
2024-04-18T06:26:24.636Z,7.43
2024-04-18T06:28:54.489Z,7.52
2024-04-18T06:31:41.566Z,7.56
2024-04-18T06:34:11.392Z,7.61
2024-04-18T06:36:41.960Z,7.62
2024-04-18T06:39:14.477Z,7.54
2024-04-18T06:41:44.371Z,7.55
2024-04-18T06:44:14.202Z,7.74
2024-04-18T06:46:52.761Z,7.86
2024-04-18T06:49:29.862Z,7.77
2024-04-18T06:51:59.723Z,7.97
2024-04-18T06:54:32.266Z,8.25
2024-04-18T06:57:02.111Z,8.36
2024-04-18T06:59:31.942Z,8.33
2024-04-18T07:02:01.771Z,8.28
2024-04-18T07:04:51.755Z,8.07
2024-04-18T07:07:21.748Z,7.74
2024-04-18T07:09:54.268Z,7.73
2024-04-18T07:12:24.123Z,7.70
2024-04-18T07:15:13.904Z,7.57
2024-04-18T07:17:47.137Z,7.48
2024-04-18T07:20:16.999Z,7.49
2024-04-18T07:23:07.084Z,7.50
2024-04-18T07:25:40.346Z,7.53
2024-04-18T07:28:29.650Z,7.46
2024-04-18T07:30:59.693Z,7.54
2024-04-18T07:33:29.695Z,7.34
2024-04-18T07:36:00.799Z,7.41
2024-04-18T07:38:31.003Z,7.57
2024-04-18T07:41:03.478Z,7.72
2024-04-18T07:43:33.273Z,7.70
2024-04-18T07:46:03.985Z,7.80
2024-04-18T07:48:34.040Z,7.91
2024-04-18T07:51:03.915Z,7.83
2024-04-18T07:53:33.732Z,7.86
2024-04-18T07:56:09.323Z,8.00
2024-04-18T09:17:22.727Z,11.85
2024-04-18T09:19:52.647Z,11.79
2024-04-18T09:22:22.752Z,11.42
2024-04-18T09:24:55.136Z,11.26
2024-04-18T09:27:25.090Z,11.95
2024-04-18T09:29:54.919Z,11.92
2024-04-18T09:32:27.989Z,11.82
2024-04-18T09:34:59.923Z,10.64
2024-04-18T09:37:31.973Z,10.13
2024-04-18T09:40:03.352Z,9.48
2024-04-18T09:42:41.838Z,8.32
2024-04-18T09:45:16.080Z,7.92
2024-04-18T09:47:50.588Z,8.27
2024-04-18T09:50:21.456Z,8.19
2024-04-18T09:52:53.275Z,8.36
2024-04-18T09:55:26.320Z,8.42
2024-04-18T09:57:59.176Z,8.56
2024-04-18T10:00:31.221Z,8.79
2024-04-18T10:03:07.247Z,9.19
2024-04-18T10:05:37.508Z,9.92
2024-04-18T10:08:08.594Z,10.57
2024-04-18T10:10:40.230Z,11.39
2024-04-18T10:13:12.240Z,11.76
2024-04-18T10:15:42.136Z,11.46
2024-04-18T10:18:22.337Z,10.79
2024-04-18T10:20:52.244Z,10.25
2024-04-18T10:23:25.114Z,10.14
2024-04-18T10:26:01.125Z,9.79
2024-04-18T10:28:32.076Z,9.61
2024-04-18T10:31:06.750Z,9.36
2024-04-18T10:33:40.185Z,9.31
2024-04-18T10:36:11.795Z,9.31
2024-04-18T10:38:46.350Z,9.18
2024-04-18T10:41:17.455Z,9.00
2024-04-18T10:43:48.254Z,8.67
2024-04-18T10:46:19.777Z,8.52
2024-04-18T10:48:55.909Z,8.66
2024-04-18T10:51:28.046Z,8.35
2024-04-18T10:53:57.884Z,8.62
2024-04-18T10:56:29.485Z,8.93
2024-04-18T10:59:00.385Z,9.16
2024-04-18T11:01:32.757Z,9.38
2024-04-18T11:04:05.352Z,9.39
2024-04-18T11:06:35.449Z,9.34
2024-04-18T11:09:05.397Z,9.16
2024-04-18T11:11:39.465Z,9.17
2024-04-18T11:14:11.737Z,9.43
2024-04-18T11:16:42.274Z,9.64
2024-04-18T11:19:17.072Z,10.22
2024-04-18T11:21:47.267Z,10.84
2024-04-18T11:24:17.385Z,11.65
2024-04-18T11:26:47.236Z,12.60
2024-04-18T11:29:17.039Z,13.06
2024-04-18T11:31:46.978Z,13.64
2024-04-18T11:34:19.964Z,13.86
2024-04-18T11:36:50.427Z,14.59
2024-04-18T11:39:21.501Z,14.21
2024-04-18T11:41:51.298Z,14.24
2024-04-18T11:44:21.096Z,14.02
2024-04-18T11:46:51.799Z,13.64
2024-04-18T11:49:24.527Z,13.43
2024-04-18T11:51:54.346Z,13.31
2024-04-18T11:54:24.285Z,14.13
2024-04-18T11:56:55.074Z,14.80
2024-04-18T11:59:36.123Z,15.52
2024-04-18T12:02:05.906Z,15.78
2024-04-18T12:04:56.338Z,16.06
2024-04-18T12:07:26.234Z,16.91
2024-04-18T12:09:55.676Z,17.67
2024-04-18T12:12:25.619Z,17.52
2024-04-18T12:14:55.958Z,16.81
2024-04-18T12:17:28.880Z,16.24
2024-04-18T12:20:20.542Z,15.39
2024-04-18T12:22:50.647Z,14.84
2024-04-18T12:25:21.240Z,14.19
2024-04-18T12:27:51.565Z,13.69
2024-04-18T12:30:34.456Z,13.10
2024-04-18T12:33:23.879Z,12.67
2024-04-18T12:35:56.617Z,13.02
2024-04-18T12:38:26.493Z,13.48
2024-04-18T12:41:05.822Z,13.65
2024-04-18T12:43:36.549Z,13.32
2024-04-18T12:46:26.545Z,12.04
2024-04-18T12:48:57.763Z,11.80
2024-04-18T12:51:30.556Z,11.58
2024-04-18T12:54:00.436Z,11.37
2024-04-18T12:56:50.144Z,11.18
2024-04-18T12:59:26.446Z,11.19
2024-04-18T13:01:56.585Z,11.17
2024-04-18T13:04:23.896Z,11.94
2024-04-18T13:06:56.560Z,13.34
2024-04-18T13:09:32.280Z,14.49
2024-04-18T13:12:02.713Z,15.13
2024-04-18T13:14:52.783Z,16.17
2024-04-18T13:17:23.589Z,17.09
2024-04-18T13:19:54.276Z,17.74
2024-04-18T13:22:26.791Z,18.01
2024-04-18T13:24:56.629Z,18.37
2024-04-18T13:27:31.432Z,18.61
2024-04-18T13:30:02.398Z,18.22
2024-04-18T13:32:36.745Z,16.96
2024-04-18T13:35:07.091Z,15.55
2024-04-18T13:37:39.748Z,14.49
2024-04-18T13:40:22.109Z,13.10
2024-04-18T13:42:58.254Z,12.21
2024-04-18T13:45:33.226Z,11.84
2024-04-18T13:48:03.966Z,11.42
2024-04-18T13:50:48.234Z,11.23
2024-04-18T13:53:20.829Z,10.88
2024-04-18T13:55:51.965Z,10.84
2024-04-18T13:58:20.479Z,10.77
2024-04-18T14:01:14.050Z,10.82
2024-04-18T14:04:04.953Z,10.61
2024-04-18T14:06:43.854Z,10.68
2024-04-18T14:09:24.983Z,11.49
2024-04-18T14:12:14.677Z,12.50
2024-04-18T14:14:44.476Z,12.39
2024-04-18T14:17:49.958Z,13.00
2024-04-18T14:20:19.830Z,13.50
2024-04-18T14:22:53.336Z,13.18
2024-04-18T14:25:26.355Z,13.37
2024-04-18T14:28:23.573Z,12.94
2024-04-18T14:31:17.697Z,12.68
2024-04-18T14:33:50.739Z,12.62
2024-04-18T14:36:20.766Z,12.79
2024-04-18T14:38:50.600Z,12.52
2024-04-18T14:41:23.424Z,12.90
2024-04-18T14:43:57.633Z,12.64
2024-04-18T14:46:29.326Z,13.01
2024-04-18T14:49:19.164Z,13.65
2024-04-18T14:51:57.623Z,13.40
2024-04-18T14:54:30.264Z,13.55
2024-04-18T14:57:02.910Z,13.44
2024-04-18T14:59:39.215Z,13.03
2024-04-18T15:02:09.500Z,12.47
2024-04-18T15:04:59.898Z,11.52
2024-04-18T15:07:30.055Z,10.96
2024-04-18T15:10:00.217Z,10.45
2024-04-18T15:12:53.108Z,10.22
2024-04-18T15:15:26.557Z,10.09
2024-04-18T15:17:56.500Z,10.03
2024-04-18T15:20:26.365Z,9.97
2024-04-18T15:23:14.667Z,9.93
2024-04-18T15:25:44.591Z,9.68
2024-04-18T15:28:14.436Z,9.53
2024-04-18T15:30:44.415Z,9.61
2024-04-18T15:33:37.242Z,9.82
2024-04-18T15:36:17.527Z,10.08
2024-04-18T15:38:53.754Z,10.35
2024-04-18T15:41:20.924Z,10.45
2024-04-18T15:43:55.520Z,10.32
2024-04-18T15:46:37.216Z,10.45
2024-04-18T15:49:10.003Z,10.46
2024-04-18T15:51:40.152Z,10.41
2024-04-18T15:54:10.284Z,10.36
2024-04-18T15:56:40.111Z,10.31
2024-04-18T15:59:32.536Z,10.04
2024-04-18T16:02:09.469Z,10.05
2024-04-18T16:04:45.827Z,10.20
2024-04-18T16:07:15.678Z,10.58
2024-04-18T16:09:54.601Z,10.90
2024-04-18T16:12:24.667Z,11.18
2024-04-18T16:15:07.255Z,11.31
2024-04-18T16:17:57.160Z,11.52
2024-04-18T16:20:27.084Z,11.41
2024-04-18T16:22:56.927Z,11.36
2024-04-18T16:25:31.853Z,11.22
2024-04-18T16:28:02.375Z,11.02
2024-04-18T16:30:34.922Z,11.05
2024-04-18T16:33:05.259Z,11.09
2024-04-18T16:35:35.091Z,10.96
2024-04-18T16:38:13.847Z,10.87
2024-04-18T16:40:56.274Z,10.83
2024-04-18T16:43:33.854Z,10.53
2024-04-18T16:46:07.922Z,10.44
2024-04-18T16:48:37.828Z,10.39
2024-04-18T16:51:08.190Z,10.13
2024-04-18T16:53:56.526Z,10.09
2024-04-18T16:56:24.896Z,10.05
2024-04-18T16:58:57.642Z,9.85
2024-04-18T17:01:30.077Z,9.76
2024-04-18T17:03:59.995Z,9.64
2024-04-18T17:06:41.833Z,9.74
2024-04-18T17:09:18.342Z,9.65
2024-04-18T17:11:48.417Z,9.60
2024-04-18T17:14:53.963Z,9.79
2024-04-18T17:17:26.470Z,9.92
2024-04-18T17:19:59.011Z,9.91
2024-04-18T17:22:28.844Z,9.97
2024-04-18T17:24:58.762Z,9.92
2024-04-18T17:27:28.783Z,9.87
2024-04-18T17:29:58.617Z,9.80
2024-04-18T17:32:31.334Z,9.70
2024-04-18T17:35:21.121Z,9.75
2024-04-18T17:38:12.365Z,9.79
2024-04-18T17:41:02.539Z,10.10
2024-04-18T17:43:33.519Z,10.12
2024-04-18T17:46:03.391Z,9.91
2024-04-18T17:48:49.739Z,9.65
2024-04-18T17:51:19.775Z,9.36
2024-04-18T17:53:49.779Z,9.27
2024-04-18T17:56:19.716Z,9.15
2024-04-18T17:58:49.770Z,9.00
2024-04-18T18:01:19.735Z,8.84
2024-04-18T18:04:12.473Z,8.66
2024-04-18T18:06:42.641Z,8.50
2024-04-18T18:09:12.651Z,8.39
2024-04-18T18:11:42.553Z,8.22
2024-04-18T18:14:12.627Z,8.15
2024-04-18T18:17:01.791Z,8.15
2024-04-18T18:19:34.381Z,8.17
2024-04-18T18:22:04.440Z,8.10
2024-04-18T18:24:34.694Z,8.05
2024-04-18T18:27:04.579Z,8.02
2024-04-18T18:29:31.819Z,7.97
2024-04-18T18:32:14.578Z,7.86
2024-04-18T18:34:46.672Z,7.82
2024-04-18T18:37:17.259Z,7.84
2024-04-18T18:40:05.606Z,7.79
2024-04-18T18:42:35.537Z,7.79
2024-04-18T18:45:02.837Z,7.72
2024-04-18T18:47:32.883Z,7.65
2024-04-18T18:50:21.574Z,7.75
2024-04-18T18:52:52.361Z,7.75
2024-04-18T18:55:39.786Z,7.53
2024-04-18T18:58:09.617Z,7.61
2024-04-18T19:00:37.249Z,7.61
2024-04-18T19:03:14.329Z,7.48
2024-04-18T19:05:50.552Z,7.23
2024-04-18T19:08:20.401Z,7.22
2024-04-18T19:10:53.702Z,7.18
2024-04-18T19:13:23.598Z,6.99
2024-04-18T19:16:00.230Z,6.94
2024-04-18T19:18:30.286Z,6.94
2024-04-18T19:21:00.181Z,6.88
2024-04-18T19:23:39.412Z,6.90
2024-04-18T19:26:07.866Z,6.89
2024-04-18T19:28:37.835Z,6.88
2024-04-18T19:31:06.017Z,6.85
2024-04-18T19:33:36.470Z,6.81
2024-04-18T19:36:06.796Z,6.72
2024-04-18T19:38:37.519Z,6.75
2024-04-18T19:41:26.170Z,6.70
2024-04-18T19:43:53.951Z,6.62
2024-04-18T19:46:26.303Z,6.54
2024-04-18T19:49:10.383Z,6.46
2024-04-18T19:52:05.035Z,6.38
2024-04-18T19:54:34.899Z,6.33
2024-04-18T19:57:05.093Z,6.31
2024-04-18T19:59:32.530Z,6.27
2024-04-18T20:02:02.419Z,6.22
2024-04-18T20:04:29.694Z,6.21
2024-04-18T20:07:02.183Z,6.14
2024-04-18T20:09:30.849Z,6.10
2024-04-18T20:12:02.031Z,6.07
2024-04-18T20:14:29.717Z,5.94
2024-04-18T20:16:59.650Z,5.98
2024-04-18T20:19:27.472Z,6.02
2024-04-18T20:21:57.635Z,6.03
2024-04-18T20:24:29.483Z,5.90
2024-04-18T20:27:17.907Z,5.98
2024-04-18T20:29:45.697Z,5.97
2024-04-18T20:32:25.561Z,5.95
2024-04-18T20:34:53.969Z,5.92
2024-04-18T20:37:24.216Z,5.92
2024-04-18T20:39:57.605Z,5.88
2024-04-18T20:42:29.474Z,5.83
2024-04-18T20:44:59.867Z,5.78
2024-04-18T20:47:30.051Z,5.73
2024-04-18T20:49:57.397Z,5.72
2024-04-18T20:52:27.256Z,5.66
2024-04-18T20:54:57.072Z,5.62
2024-04-18T20:57:27.921Z,5.60
2024-04-18T20:59:55.400Z,5.59
2024-04-18T21:02:26.111Z,5.55
2024-04-18T21:04:53.409Z,5.54
2024-04-18T21:07:23.278Z,5.52
2024-04-18T21:09:50.654Z,5.54
2024-04-18T21:12:24.905Z,5.53
2024-04-18T21:14:52.142Z,5.55
2024-04-18T21:17:21.925Z,5.57
2024-04-18T21:19:49.109Z,5.55
2024-04-18T21:22:18.924Z,5.57
2024-04-18T21:24:46.261Z,5.55
2024-04-18T21:27:16.104Z,5.55
2024-04-18T21:29:45.924Z,5.56
2024-04-18T21:32:15.724Z,5.51
2024-04-18T21:34:42.980Z,5.48
2024-04-18T21:37:12.781Z,5.48
2024-04-18T21:39:40.055Z,5.47
2024-04-18T21:42:10.083Z,5.45
2024-04-18T21:44:38.913Z,5.42
2024-04-18T21:47:11.527Z,5.41
2024-04-18T21:49:38.671Z,5.34
2024-04-18T21:52:08.991Z,5.29
2024-04-18T21:54:36.139Z,5.25
2024-04-18T21:57:07.125Z,5.24
2024-04-18T21:59:36.481Z,5.21
2024-04-18T22:02:06.428Z,5.21
2024-04-18T22:04:36.249Z,5.22
2024-04-18T22:07:09.708Z,5.28
2024-04-18T22:09:36.906Z,5.32
2024-04-18T22:12:06.890Z,5.38
2024-04-18T22:14:34.105Z,5.37
2024-04-18T22:17:03.989Z,5.38
2024-04-18T22:19:31.244Z,5.39
2024-04-18T22:22:03.822Z,5.41
2024-04-18T22:24:31.084Z,5.41
2024-04-18T22:27:00.971Z,5.40
2024-04-18T22:29:28.143Z,5.37
2024-04-18T22:31:58.036Z,5.36
2024-04-18T22:34:34.745Z,5.38
2024-04-18T22:37:06.754Z,5.40
2024-04-18T22:39:36.569Z,5.39
2024-04-18T22:42:04.114Z,5.39
2024-04-18T22:44:33.926Z,5.37
2024-04-18T22:47:01.114Z,5.38
2024-04-18T22:49:31.625Z,5.40
2024-04-18T22:51:58.781Z,5.33
2024-04-18T22:54:31.267Z,5.33
2024-04-18T22:57:16.457Z,5.29
2024-04-18T22:59:47.335Z,5.25
2024-04-18T23:02:14.780Z,5.20
2024-04-18T23:04:44.962Z,5.18
2024-04-18T23:07:12.211Z,5.08
2024-04-18T23:09:44.710Z,5.01
2024-04-18T23:12:11.926Z,4.92
2024-04-18T23:14:41.742Z,4.92
2024-04-18T23:17:08.969Z,4.89
2024-04-18T23:19:38.768Z,4.90
2024-04-18T23:22:06.580Z,4.88
2024-04-18T23:24:45.038Z,4.89
2024-04-18T23:27:13.628Z,4.90
2024-04-18T23:29:43.435Z,4.92
2024-04-18T23:32:11.668Z,4.92
2024-04-18T23:34:41.728Z,4.88
2024-04-18T23:37:11.588Z,4.93
2024-04-18T23:39:42.057Z,4.96
2024-04-18T23:42:12.161Z,5.00
2024-04-18T23:44:39.310Z,5.04
2024-04-18T23:47:09.121Z,5.06
2024-04-18T23:49:36.968Z,5.10
2024-04-18T23:52:07.367Z,5.15
2024-04-18T23:54:34.556Z,5.19
2024-04-18T23:57:07.412Z,5.26
2024-04-18T23:59:34.632Z,5.33
